Time;durP1;ratioP1;P1;durP2;ratioP2;P2;SDS_P1;SDS_P2;PMS_P1;PMS_P2;Temp;Humidity;BMP_temperature;BMP_pressure;BME280_temperature;BME280_humidity;BME280_pressure;Samples;Min_cycle;Max_cycle;Signal;HPM_P1;HPM_P2
2023/03/04 17:23:37;;;;;;;;;;;7.00;80.20;;;;;;5044588;28;80380;-42
2023/03/04 17:26:03;;;;;;;;;;;7.00;80.70;;;;;;5043656;28;80253;-41
2023/03/04 17:28:29;;;;;;;;;;;6.90;80.90;;;;;;5044272;27;80118;-41
2023/03/04 17:30:54;;;;;;;;;;;7.00;80.90;;;;;;5024076;27;82311;-38
2023/03/04 17:33:20;;;;;;;;;;;7.00;81.00;;;;;;5016750;27;80960;-41
2023/03/04 17:35:45;;;;;;;;;;;6.90;81.10;;;;;;5016373;28;80955;-42
2023/03/04 17:38:14;;;;;;;;;;;7.00;81.30;;;;;;5020443;28;81647;-39
2023/03/04 17:40:40;;;;;;;;;;;7.00;81.10;;;;;;5017791;28;81195;-40
2023/03/04 17:43:10;;;;;;;;;;;7.00;81.10;;;;;;5036974;28;81440;-38
2023/03/04 17:45:42;;;;;;;;;;;7.00;81.30;;;;;;5013119;27;81139;-39
2023/03/04 17:48:13;;;;;;;;;;;6.90;81.50;;;;;;5015683;28;80611;-38
2023/03/04 17:50:49;;;;;;;;;;;7.00;81.40;;;;;;5029934;27;82621;-41
2023/03/04 17:53:14;;;;;;;;;;;6.90;81.50;;;;;;5031717;27;80247;-36
2023/03/04 17:55:40;;;;;;;;;;;7.00;81.10;;;;;;5031351;27;80733;-36
2023/03/04 17:58:05;;;;;;;;;;;6.90;81.50;;;;;;4992265;28;81281;-38
2023/03/04 18:00:31;;;;;;;;;;;7.00;81.60;;;;;;4990907;28;80996;-37
2023/03/04 18:02:56;;;;;;;;;;;7.00;80.80;;;;;;4990964;28;80755;-38
2023/03/04 18:05:22;;;;;;;;;;;7.00;80.90;;;;;;4993877;28;82319;-38
2023/03/04 18:07:47;;;;;;;;;;;7.00;80.70;;;;;;4989446;28;80306;-37
2023/03/04 18:10:13;;;;;;;;;;;7.00;80.70;;;;;;4988835;28;82949;-37
2023/03/04 18:12:38;;;;;;;;;;;6.90;80.70;;;;;;4992960;28;80393;-37
2023/03/04 18:15:04;;;;;;;;;;;6.90;80.70;;;;;;4990819;28;82416;-37
2023/03/04 18:17:29;;;;;;;;;;;6.90;80.70;;;;;;4991011;28;83192;-37
2023/03/04 18:19:55;;;;;;;;;;;6.90;80.90;;;;;;4989509;28;80737;-37
2023/03/04 18:22:21;;;;;;;;;;;6.80;81.00;;;;;;4988935;28;82267;-37
2023/03/04 18:24:46;;;;;;;;;;;6.80;80.80;;;;;;4991604;28;82792;-37
2023/03/04 18:27:12;;;;;;;;;;;6.80;81.00;;;;;;4993486;28;80426;-37
2023/03/04 18:29:37;;;;;;;;;;;6.80;81.00;;;;;;4990961;28;81293;-37
2023/03/04 18:32:03;;;;;;;;;;;6.80;81.00;;;;;;4993695;28;80357;-37
2023/03/04 18:34:28;;;;;;;;;;;6.80;81.00;;;;;;4980371;28;82384;-37
2023/03/04 18:36:54;;;;;;;;;;;6.80;80.90;;;;;;4979772;28;82180;-38
2023/03/04 18:39:19;;;;;;;;;;;6.70;80.90;;;;;;4979289;28;80405;-38
2023/03/04 18:41:45;;;;;;;;;;;6.80;81.00;;;;;;4978417;28;81335;-37
2023/03/04 18:44:10;;;;;;;;;;;6.70;80.80;;;;;;4980546;28;81190;-36
2023/03/04 18:46:36;;;;;;;;;;;6.70;80.90;;;;;;4978021;28;80421;-37
2023/03/04 18:49:02;;;;;;;;;;;6.70;80.90;;;;;;4982151;28;82213;-37
2023/03/04 18:51:28;;;;;;;;;;;6.70;80.80;;;;;;4979156;28;80385;-37
2023/03/04 18:53:53;;;;;;;;;;;6.70;80.80;;;;;;4977938;28;81131;-36
2023/03/04 18:56:36;;;;;;;;;;;6.70;80.70;;;;;;4980670;28;81872;-37
2023/03/04 18:59:02;;;;;;;;;;;6.70;80.70;;;;;;4980225;28;80295;-37
2023/03/04 19:01:27;;;;;;;;;;;6.70;80.70;;;;;;4976849;28;81803;-36
2023/03/04 19:03:54;;;;;;;;;;;6.70;80.80;;;;;;4979770;28;82726;-37
2023/03/04 19:06:19;;;;;;;;;;;6.70;80.70;;;;;;4978538;28;80376;-37
2023/03/04 19:08:45;;;;;;;;;;;6.70;80.80;;;;;;4978144;28;82212;-36
2023/03/04 19:11:10;;;;;;;;;;;6.70;80.70;;;;;;4982411;28;82930;-37
2023/03/04 19:13:36;;;;;;;;;;;6.70;80.60;;;;;;4977044;28;80551;-37
2023/03/04 19:16:01;;;;;;;;;;;6.70;80.60;;;;;;4979482;28;81682;-37
2023/03/04 19:18:27;;;;;;;;;;;6.70;80.60;;;;;;4978413;28;80399;-37
2023/03/04 19:20:53;;;;;;;;;;;6.70;80.60;;;;;;4978260;28;82285;-37
2023/03/04 19:23:18;;;;;;;;;;;6.70;80.60;;;;;;4979336;28;82634;-38
2023/03/04 19:25:44;;;;;;;;;;;6.70;80.60;;;;;;4976883;28;80444;-38
2023/03/04 19:28:10;;;;;;;;;;;6.70;80.50;;;;;;4979254;28;81266;-37
2023/03/04 19:30:36;;;;;;;;;;;6.70;80.50;;;;;;4978362;28;81654;-37
2023/03/04 19:33:02;;;;;;;;;;;6.70;80.40;;;;;;4980192;28;80620;-37
2023/03/04 19:35:27;;;;;;;;;;;6.70;80.50;;;;;;4979654;28;83034;-37
2023/03/04 19:37:53;;;;;;;;;;;6.60;80.50;;;;;;4976746;28;80646;-36
2023/03/04 19:40:19;;;;;;;;;;;6.60;80.30;;;;;;4978817;28;81335;-37
2023/03/04 19:42:45;;;;;;;;;;;6.70;80.30;;;;;;4977964;28;82470;-37
2023/03/04 19:45:11;;;;;;;;;;;6.60;80.30;;;;;;4976321;28;80405;-37
2023/03/04 19:47:38;;;;;;;;;;;6.60;80.40;;;;;;4979731;28;80930;-37
2023/03/04 19:50:05;;;;;;;;;;;6.60;80.20;;;;;;4977092;28;80282;-37
2023/03/04 19:52:31;;;;;;;;;;;6.60;80.20;;;;;;4980778;28;80308;-37
2023/03/04 19:54:56;;;;;;;;;;;6.60;80.10;;;;;;4978898;28;80965;-37
2023/03/04 19:57:22;;;;;;;;;;;6.60;80.20;;;;;;4976485;28;80438;-36
2023/03/04 19:59:47;;;;;;;;;;;6.60;80.10;;;;;;4976576;28;80364;-36
2023/03/04 20:02:13;;;;;;;;;;;6.60;80.10;;;;;;4978151;28;83132;-37
2023/03/04 20:04:38;;;;;;;;;;;6.60;80.10;;;;;;4977850;28;80362;-36
2023/03/04 20:07:04;;;;;;;;;;;6.60;80.00;;;;;;4976918;28;82458;-37
2023/03/04 20:09:29;;;;;;;;;;;6.60;80.00;;;;;;4979075;28;82698;-37
2023/03/04 20:11:55;;;;;;;;;;;6.60;80.00;;;;;;4976063;28;80401;-37
2023/03/04 20:14:20;;;;;;;;;;;6.60;79.90;;;;;;4980875;28;82198;-37
2023/03/04 20:16:46;;;;;;;;;;;6.60;79.90;;;;;;4977466;28;80358;-36
2023/03/04 20:19:12;;;;;;;;;;;6.60;80.50;;;;;;4976611;28;82154;-37
2023/03/04 20:21:37;;;;;;;;;;;6.60;79.90;;;;;;4978403;28;82606;-37
2023/03/04 20:24:03;;;;;;;;;;;6.60;79.90;;;;;;4976199;28;80314;-37
2023/03/04 20:26:30;;;;;;;;;;;6.60;79.90;;;;;;4977814;28;82088;-38
2023/03/04 20:28:55;;;;;;;;;;;6.60;79.90;;;;;;4975274;28;82847;-37
2023/03/04 20:31:20;;;;;;;;;;;6.60;79.90;;;;;;4978582;28;80371;-37
2023/03/04 20:33:47;;;;;;;;;;;6.60;79.80;;;;;;4974576;28;81695;-37
2023/03/04 20:36:16;;;;;;;;;;;6.60;79.80;;;;;;4980904;28;82765;-37
2023/03/04 20:38:42;;;;;;;;;;;6.60;79.80;;;;;;4977516;28;83958;-37
2023/03/04 20:41:07;;;;;;;;;;;6.60;79.80;;;;;;4976030;28;81517;-37
2023/03/04 20:43:33;;;;;;;;;;;6.60;79.80;;;;;;4978725;28;80433;-37
2023/03/04 20:46:17;;;;;;;;;;;6.60;79.80;;;;;;4976357;28;80662;-37
2023/03/04 20:48:43;;;;;;;;;;;6.50;79.70;;;;;;4975267;28;81806;-37
2023/03/04 20:51:08;;;;;;;;;;;6.60;79.80;;;;;;4977851;28;80393;-37
2023/03/04 20:53:34;;;;;;;;;;;6.60;79.80;;;;;;4976987;28;82086;-37
2023/03/04 20:56:02;;;;;;;;;;;6.50;79.70;;;;;;4976217;28;82728;-37
2023/03/04 20:58:27;;;;;;;;;;;6.60;79.80;;;;;;4981310;28;80463;-37
2023/03/04 21:00:53;;;;;;;;;;;6.50;79.70;;;;;;4975557;28;81990;-37
2023/03/04 21:03:18;;;;;;;;;;;6.50;79.70;;;;;;4977059;28;80391;-37
2023/03/04 21:05:44;;;;;;;;;;;6.50;79.80;;;;;;4977457;28;80728;-37
2023/03/04 21:08:09;;;;;;;;;;;6.50;79.80;;;;;;4975805;28;82604;-38
2023/03/04 21:10:35;;;;;;;;;;;6.50;79.80;;;;;;4978052;28;80546;-37
2023/03/04 21:13:00;;;;;;;;;;;6.50;79.80;;;;;;4975796;28;80716;-36
2023/03/04 21:15:26;;;;;;;;;;;6.50;79.80;;;;;;4977277;28;82869;-37
2023/03/04 21:17:51;;;;;;;;;;;6.50;79.80;;;;;;4977388;28;80443;-37
2023/03/04 21:20:17;;;;;;;;;;;6.50;79.80;;;;;;4978112;28;81985;-37
2023/03/04 21:22:42;;;;;;;;;;;6.50;79.80;;;;;;4978159;28;81040;-37
2023/03/04 21:25:08;;;;;;;;;;;6.50;79.80;;;;;;4974115;28;82281;-37
2023/03/04 21:27:37;;;;;;;;;;;6.50;79.80;;;;;;4974580;28;84620;-38
2023/03/04 21:30:03;;;;;;;;;;;6.50;79.80;;;;;;4975126;28;80997;-37
2023/03/04 21:32:28;;;;;;;;;;;6.50;79.80;;;;;;4977134;28;83631;-37
2023/03/04 21:34:54;;;;;;;;;;;6.50;79.80;;;;;;4973881;28;83512;-37
2023/03/04 21:37:21;;;;;;;;;;;6.50;79.80;;;;;;4977397;28;83128;-37
2023/03/04 21:39:46;;;;;;;;;;;6.50;79.80;;;;;;4977823;28;83320;-37
2023/03/04 21:42:12;;;;;;;;;;;6.50;79.80;;;;;;4976130;28;82069;-36
2023/03/04 21:44:37;;;;;;;;;;;6.50;79.80;;;;;;4973710;28;83673;-37
2023/03/04 21:47:03;;;;;;;;;;;6.50;79.80;;;;;;4976257;28;84255;-36
2023/03/04 21:49:28;;;;;;;;;;;6.50;79.80;;;;;;4974990;28;82052;-37
2023/03/04 21:51:54;;;;;;;;;;;6.50;79.80;;;;;;4975282;28;82643;-37
2023/03/04 21:54:19;;;;;;;;;;;6.50;79.90;;;;;;4976682;28;84063;-36
2023/03/04 21:56:45;;;;;;;;;;;6.50;79.80;;;;;;4973653;28;82188;-37
2023/03/04 21:59:12;;;;;;;;;;;6.50;79.80;;;;;;4976461;28;83868;-37
2023/03/04 22:01:37;;;;;;;;;;;6.50;79.80;;;;;;4976661;28;85478;-37
2023/03/04 22:04:03;;;;;;;;;;;6.50;79.80;;;;;;4974586;28;84762;-37
2023/03/04 22:06:32;;;;;;;;;;;6.50;79.80;;;;;;4972805;28;84204;-37
2023/03/04 22:08:58;;;;;;;;;;;6.50;79.80;;;;;;4974973;28;82222;-37
2023/03/04 22:11:23;;;;;;;;;;;6.50;79.80;;;;;;4978900;28;83782;-37
2023/03/04 22:13:52;;;;;;;;;;;6.50;79.80;;;;;;4978781;28;83338;-37
2023/03/04 22:16:18;;;;;;;;;;;6.50;79.80;;;;;;4976615;28;82051;-37
2023/03/04 22:18:43;;;;;;;;;;;6.50;79.80;;;;;;4980201;28;83059;-37
2023/03/04 22:21:10;;;;;;;;;;;6.50;79.80;;;;;;4977376;28;84263;-37
2023/03/04 22:23:36;;;;;;;;;;;6.50;79.80;;;;;;4980173;28;82056;-36
2023/03/04 22:26:06;;;;;;;;;;;6.50;79.80;;;;;;4978935;28;83954;-37
2023/03/04 22:28:31;;;;;;;;;;;6.50;79.80;;;;;;4976935;28;82032;-36
2023/03/04 22:30:57;;;;;;;;;;;6.50;79.80;;;;;;4978718;28;84241;-37
2023/03/04 22:33:23;;;;;;;;;;;6.50;79.80;;;;;;4976068;28;82920;-37
2023/03/04 22:35:48;;;;;;;;;;;6.50;79.80;;;;;;4977710;28;82092;-37
2023/03/04 22:38:14;;;;;;;;;;;6.50;79.90;;;;;;4975125;28;85748;-36
2023/03/04 22:40:39;;;;;;;;;;;6.50;79.80;;;;;;4979463;28;82717;-36
2023/03/04 22:43:05;;;;;;;;;;;6.50;79.80;;;;;;4978098;28;81260;-37
2023/03/04 22:45:31;;;;;;;;;;;6.50;79.90;;;;;;4980344;28;83086;-37
2023/03/04 22:47:57;;;;;;;;;;;6.50;79.80;;;;;;4975660;28;82003;-37
2023/03/04 22:50:23;;;;;;;;;;;6.50;79.80;;;;;;4978672;28;84259;-37
2023/03/04 22:52:49;;;;;;;;;;;6.40;79.80;;;;;;4976690;28;84399;-36
2023/03/04 22:55:15;;;;;;;;;;;6.50;79.90;;;;;;4977735;28;82054;-37
2023/03/04 22:57:41;;;;;;;;;;;6.50;79.80;;;;;;4978670;28;82706;-37
2023/03/04 23:00:15;;;;;;;;;;;6.40;79.80;;;;;;4976147;28;84683;-37
2023/03/04 23:02:41;;;;;;;;;;;6.40;79.80;;;;;;4977182;28;82024;-37
2023/03/04 23:05:07;;;;;;;;;;;6.40;79.80;;;;;;4977215;28;84011;-37
2023/03/04 23:07:36;;;;;;;;;;;6.40;79.80;;;;;;4981964;28;83552;-37
2023/03/04 23:10:02;;;;;;;;;;;6.40;79.90;;;;;;4976119;28;83329;-37
2023/03/04 23:12:27;;;;;;;;;;;6.40;79.90;;;;;;4977592;28;84284;-37
2023/03/04 23:14:53;;;;;;;;;;;6.40;79.90;;;;;;4977149;28;83111;-37
2023/03/04 23:17:18;;;;;;;;;;;6.40;79.80;;;;;;4976490;28;83374;-37
2023/03/04 23:19:44;;;;;;;;;;;6.40;79.80;;;;;;4978424;28;83992;-37
2023/03/04 23:22:09;;;;;;;;;;;6.40;79.80;;;;;;4975839;28;82113;-37
2023/03/04 23:24:35;;;;;;;;;;;6.40;79.80;;;;;;4978127;28;82074;-36
2023/03/04 23:27:01;;;;;;;;;;;6.40;79.80;;;;;;4977844;28;82961;-36
2023/03/04 23:29:26;;;;;;;;;;;6.40;79.90;;;;;;4978586;28;82108;-37
2023/03/04 23:31:52;;;;;;;;;;;6.40;80.40;;;;;;4979260;28;82420;-37
2023/03/04 23:34:17;;;;;;;;;;;6.40;79.90;;;;;;4976268;28;82122;-37
2023/03/04 23:36:43;;;;;;;;;;;6.40;79.90;;;;;;4977766;28;82151;-37
2023/03/04 23:39:10;;;;;;;;;;;6.40;79.80;;;;;;4976650;28;84133;-37
2023/03/04 23:41:35;;;;;;;;;;;6.40;79.80;;;;;;4975570;28;81963;-36
2023/03/04 23:44:01;;;;;;;;;;;6.40;79.80;;;;;;4976947;28;85567;-37
2023/03/04 23:46:27;;;;;;;;;;;6.40;79.90;;;;;;4974588;28;83663;-37
2023/03/04 23:48:53;;;;;;;;;;;6.40;79.80;;;;;;4980044;28;82082;-36
2023/03/04 23:51:20;;;;;;;;;;;6.40;79.80;;;;;;4975759;28;84290;-37
2023/03/04 23:53:46;;;;;;;;;;;6.40;79.90;;;;;;4978204;28;82152;-37
2023/03/04 23:56:16;;;;;;;;;;;6.40;79.90;;;;;;4976331;28;84601;-37
2023/03/04 23:58:41;;;;;;;;;;;6.40;79.90;;;;;;4976206;28;84205;-37
